sensor_id;sensor_type;location;lat;lon;timestamp;P1;durP1;ratioP1;P2;durP2;ratioP2
10550;SDS011;5324;50.684;3.862;2023-08-07T00:00:57;2.83;;;1.93;;
10550;SDS011;5324;50.684;3.862;2023-08-07T00:03:23;3.63;;;1.90;;
10550;SDS011;5324;50.684;3.862;2023-08-07T00:05:49;2.10;;;1.90;;
10550;SDS011;5324;50.684;3.862;2023-08-07T00:08:20;2.47;;;1.80;;
10550;SDS011;5324;50.684;3.862;2023-08-07T00:10:46;3.63;;;1.70;;
10550;SDS011;5324;50.684;3.862;2023-08-07T00:13:13;3.20;;;1.87;;
10550;SDS011;5324;50.684;3.862;2023-08-07T00:15:39;3.17;;;1.87;;
10550;SDS011;5324;50.684;3.862;2023-08-07T00:18:05;2.97;;;1.90;;
10550;SDS011;5324;50.684;3.862;2023-08-07T00:20:31;2.37;;;1.77;;
10550;SDS011;5324;50.684;3.862;2023-08-07T00:22:57;1.97;;;1.87;;
10550;SDS011;5324;50.684;3.862;2023-08-07T00:25:23;2.13;;;1.90;;
10550;SDS011;5324;50.684;3.862;2023-08-07T00:27:49;3.40;;;1.70;;
10550;SDS011;5324;50.684;3.862;2023-08-07T00:30:15;2.60;;;2.00;;
10550;SDS011;5324;50.684;3.862;2023-08-07T00:32:42;3.40;;;2.30;;
10550;SDS011;5324;50.684;3.862;2023-08-07T00:35:08;2.80;;;2.33;;
10550;SDS011;5324;50.684;3.862;2023-08-07T00:37:34;3.93;;;2.57;;
10550;SDS011;5324;50.684;3.862;2023-08-07T00:40:01;4.67;;;2.20;;
10550;SDS011;5324;50.684;3.862;2023-08-07T00:42:27;2.23;;;1.90;;
10550;SDS011;5324;50.684;3.862;2023-08-07T00:44:53;2.23;;;1.80;;
10550;SDS011;5324;50.684;3.862;2023-08-07T00:47:19;2.93;;;2.20;;
10550;SDS011;5324;50.684;3.862;2023-08-07T00:49:46;2.90;;;2.10;;
10550;SDS011;5324;50.684;3.862;2023-08-07T00:52:12;3.83;;;2.00;;
10550;SDS011;5324;50.684;3.862;2023-08-07T00:54:38;2.70;;;1.83;;
10550;SDS011;5324;50.684;3.862;2023-08-07T00:57:12;2.57;;;1.90;;
10550;SDS011;5324;50.684;3.862;2023-08-07T00:59:40;2.57;;;2.03;;
10550;SDS011;5324;50.684;3.862;2023-08-07T01:02:06;3.37;;;2.20;;
10550;SDS011;5324;50.684;3.862;2023-08-07T01:04:33;2.07;;;1.63;;
10550;SDS011;5324;50.684;3.862;2023-08-07T01:06:59;4.80;;;1.80;;
10550;SDS011;5324;50.684;3.862;2023-08-07T01:09:25;3.47;;;2.37;;
10550;SDS011;5324;50.684;3.862;2023-08-07T01:12:02;3.50;;;2.00;;
10550;SDS011;5324;50.684;3.862;2023-08-07T01:14:49;3.50;;;1.83;;
10550;SDS011;5324;50.684;3.862;2023-08-07T01:17:17;2.07;;;1.77;;
10550;SDS011;5324;50.684;3.862;2023-08-07T01:19:45;4.50;;;2.10;;
10550;SDS011;5324;50.684;3.862;2023-08-07T01:22:12;4.23;;;2.10;;
10550;SDS011;5324;50.684;3.862;2023-08-07T01:24:39;4.40;;;1.90;;
10550;SDS011;5324;50.684;3.862;2023-08-07T01:33:31;2.57;;;2.00;;
10550;SDS011;5324;50.684;3.862;2023-08-07T01:35:26;2.40;;;1.77;;
10550;SDS011;5324;50.684;3.862;2023-08-07T01:37:54;2.90;;;2.10;;
10550;SDS011;5324;50.684;3.862;2023-08-07T01:40:21;3.00;;;1.83;;
10550;SDS011;5324;50.684;3.862;2023-08-07T01:42:47;2.07;;;1.87;;
10550;SDS011;5324;50.684;3.862;2023-08-07T01:45:13;2.43;;;1.90;;
10550;SDS011;5324;50.684;3.862;2023-08-07T01:47:39;2.40;;;1.73;;
10550;SDS011;5324;50.684;3.862;2023-08-07T01:50:05;2.83;;;2.10;;
10550;SDS011;5324;50.684;3.862;2023-08-07T01:52:32;2.60;;;1.90;;
10550;SDS011;5324;50.684;3.862;2023-08-07T01:54:58;2.00;;;1.70;;
10550;SDS011;5324;50.684;3.862;2023-08-07T01:57:24;2.43;;;1.60;;
10550;SDS011;5324;50.684;3.862;2023-08-07T01:59:51;4.20;;;1.87;;
10550;SDS011;5324;50.684;3.862;2023-08-07T02:02:17;2.30;;;1.80;;
10550;SDS011;5324;50.684;3.862;2023-08-07T02:04:43;3.30;;;1.80;;
10550;SDS011;5324;50.684;3.862;2023-08-07T02:07:09;2.50;;;1.77;;
10550;SDS011;5324;50.684;3.862;2023-08-07T02:09:35;2.10;;;1.90;;
10550;SDS011;5324;50.684;3.862;2023-08-07T02:12:01;4.03;;;1.87;;
10550;SDS011;5324;50.684;3.862;2023-08-07T02:14:28;2.90;;;2.00;;
10550;SDS011;5324;50.684;3.862;2023-08-07T02:16:54;3.27;;;2.10;;
10550;SDS011;5324;50.684;3.862;2023-08-07T02:19:20;3.33;;;2.07;;
10550;SDS011;5324;50.684;3.862;2023-08-07T02:21:46;1.90;;;1.70;;
10550;SDS011;5324;50.684;3.862;2023-08-07T02:24:12;2.40;;;2.00;;
10550;SDS011;5324;50.684;3.862;2023-08-07T02:26:38;2.30;;;1.90;;
10550;SDS011;5324;50.684;3.862;2023-08-07T02:29:04;3.00;;;1.77;;
10550;SDS011;5324;50.684;3.862;2023-08-07T02:31:32;3.30;;;1.90;;
10550;SDS011;5324;50.684;3.862;2023-08-07T02:33:58;2.40;;;2.00;;
10550;SDS011;5324;50.684;3.862;2023-08-07T02:36:24;4.43;;;1.73;;
10550;SDS011;5324;50.684;3.862;2023-08-07T02:38:50;3.77;;;2.40;;
10550;SDS011;5324;50.684;3.862;2023-08-07T02:41:16;2.73;;;2.13;;
10550;SDS011;5324;50.684;3.862;2023-08-07T02:43:42;2.30;;;1.80;;
10550;SDS011;5324;50.684;3.862;2023-08-07T02:46:08;2.27;;;2.07;;
10550;SDS011;5324;50.684;3.862;2023-08-07T02:48:34;2.37;;;2.00;;
10550;SDS011;5324;50.684;3.862;2023-08-07T02:51:00;2.40;;;1.90;;
10550;SDS011;5324;50.684;3.862;2023-08-07T02:53:26;2.30;;;1.90;;
10550;SDS011;5324;50.684;3.862;2023-08-07T02:55:52;2.10;;;1.90;;
10550;SDS011;5324;50.684;3.862;2023-08-07T02:58:18;2.93;;;1.77;;
10550;SDS011;5324;50.684;3.862;2023-08-07T03:00:44;2.03;;;1.77;;
10550;SDS011;5324;50.684;3.862;2023-08-07T03:03:10;2.87;;;2.10;;
10550;SDS011;5324;50.684;3.862;2023-08-07T03:05:36;2.60;;;2.00;;
10550;SDS011;5324;50.684;3.862;2023-08-07T03:08:03;3.10;;;2.30;;
10550;SDS011;5324;50.684;3.862;2023-08-07T03:10:29;2.47;;;1.90;;
10550;SDS011;5324;50.684;3.862;2023-08-07T03:12:55;3.60;;;2.20;;
10550;SDS011;5324;50.684;3.862;2023-08-07T03:15:21;4.23;;;2.60;;
10550;SDS011;5324;50.684;3.862;2023-08-07T03:17:47;2.27;;;1.93;;
10550;SDS011;5324;50.684;3.862;2023-08-07T03:20:13;3.77;;;2.07;;
10550;SDS011;5324;50.684;3.862;2023-08-07T03:22:39;2.83;;;2.30;;
10550;SDS011;5324;50.684;3.862;2023-08-07T03:25:05;2.27;;;2.07;;
10550;SDS011;5324;50.684;3.862;2023-08-07T03:27:31;2.67;;;2.00;;
10550;SDS011;5324;50.684;3.862;2023-08-07T03:29:57;3.17;;;2.37;;
10550;SDS011;5324;50.684;3.862;2023-08-07T03:32:23;2.97;;;1.70;;
10550;SDS011;5324;50.684;3.862;2023-08-07T03:34:49;4.30;;;2.17;;
10550;SDS011;5324;50.684;3.862;2023-08-07T03:37:15;1.80;;;1.70;;
10550;SDS011;5324;50.684;3.862;2023-08-07T03:39:41;2.37;;;1.90;;
10550;SDS011;5324;50.684;3.862;2023-08-07T03:42:08;3.47;;;2.30;;
10550;SDS011;5324;50.684;3.862;2023-08-07T03:44:34;3.17;;;1.93;;
10550;SDS011;5324;50.684;3.862;2023-08-07T03:47:00;2.50;;;1.93;;
10550;SDS011;5324;50.684;3.862;2023-08-07T03:49:26;2.40;;;2.10;;
10550;SDS011;5324;50.684;3.862;2023-08-07T03:51:52;3.83;;;2.50;;
10550;SDS011;5324;50.684;3.862;2023-08-07T03:54:18;2.97;;;2.60;;
10550;SDS011;5324;50.684;3.862;2023-08-07T03:56:44;2.03;;;1.83;;
10550;SDS011;5324;50.684;3.862;2023-08-07T03:59:11;2.57;;;1.97;;
10550;SDS011;5324;50.684;3.862;2023-08-07T04:01:37;4.30;;;2.13;;
10550;SDS011;5324;50.684;3.862;2023-08-07T04:04:03;3.67;;;2.10;;
10550;SDS011;5324;50.684;3.862;2023-08-07T04:06:29;2.00;;;1.80;;
10550;SDS011;5324;50.684;3.862;2023-08-07T04:08:55;2.70;;;1.87;;
10550;SDS011;5324;50.684;3.862;2023-08-07T04:11:21;2.17;;;1.70;;
10550;SDS011;5324;50.684;3.862;2023-08-07T04:13:47;2.37;;;1.97;;
10550;SDS011;5324;50.684;3.862;2023-08-07T04:16:13;2.07;;;1.87;;
10550;SDS011;5324;50.684;3.862;2023-08-07T04:18:40;2.93;;;2.33;;
10550;SDS011;5324;50.684;3.862;2023-08-07T04:21:06;2.70;;;2.23;;
10550;SDS011;5324;50.684;3.862;2023-08-07T04:23:33;3.23;;;2.33;;
10550;SDS011;5324;50.684;3.862;2023-08-07T04:25:59;3.73;;;2.30;;
10550;SDS011;5324;50.684;3.862;2023-08-07T04:28:27;3.10;;;2.10;;
10550;SDS011;5324;50.684;3.862;2023-08-07T04:30:53;3.73;;;2.00;;
10550;SDS011;5324;50.684;3.862;2023-08-07T04:33:19;2.53;;;1.93;;
10550;SDS011;5324;50.684;3.862;2023-08-07T04:35:46;3.40;;;1.73;;
10550;SDS011;5324;50.684;3.862;2023-08-07T04:38:13;2.43;;;2.00;;
10550;SDS011;5324;50.684;3.862;2023-08-07T04:40:43;2.93;;;2.10;;
10550;SDS011;5324;50.684;3.862;2023-08-07T04:43:09;2.47;;;1.93;;
10550;SDS011;5324;50.684;3.862;2023-08-07T04:45:35;2.07;;;1.87;;
10550;SDS011;5324;50.684;3.862;2023-08-07T04:48:03;1.87;;;1.60;;
10550;SDS011;5324;50.684;3.862;2023-08-07T04:50:29;3.43;;;2.07;;
10550;SDS011;5324;50.684;3.862;2023-08-07T04:52:55;3.13;;;2.00;;
10550;SDS011;5324;50.684;3.862;2023-08-07T04:55:21;2.40;;;2.20;;
10550;SDS011;5324;50.684;3.862;2023-08-07T04:57:47;2.63;;;1.97;;
10550;SDS011;5324;50.684;3.862;2023-08-07T05:00:15;2.23;;;2.03;;
10550;SDS011;5324;50.684;3.862;2023-08-07T05:02:41;2.20;;;2.00;;
10550;SDS011;5324;50.684;3.862;2023-08-07T05:05:07;2.60;;;2.40;;
10550;SDS011;5324;50.684;3.862;2023-08-07T05:07:35;3.10;;;2.37;;
10550;SDS011;5324;50.684;3.862;2023-08-07T05:10:02;4.90;;;2.77;;
10550;SDS011;5324;50.684;3.862;2023-08-07T05:12:28;2.47;;;2.20;;
10550;SDS011;5324;50.684;3.862;2023-08-07T05:14:54;2.73;;;2.43;;
10550;SDS011;5324;50.684;3.862;2023-08-07T05:17:20;2.83;;;2.40;;
10550;SDS011;5324;50.684;3.862;2023-08-07T05:19:46;2.70;;;2.23;;
10550;SDS011;5324;50.684;3.862;2023-08-07T05:22:12;2.70;;;2.13;;
10550;SDS011;5324;50.684;3.862;2023-08-07T05:24:38;3.30;;;2.40;;
10550;SDS011;5324;50.684;3.862;2023-08-07T05:27:05;3.33;;;2.50;;
10550;SDS011;5324;50.684;3.862;2023-08-07T05:29:33;2.60;;;2.17;;
10550;SDS011;5324;50.684;3.862;2023-08-07T05:31:59;2.67;;;2.47;;
10550;SDS011;5324;50.684;3.862;2023-08-07T05:34:25;3.40;;;2.80;;
10550;SDS011;5324;50.684;3.862;2023-08-07T05:36:51;3.43;;;2.23;;
10550;SDS011;5324;50.684;3.862;2023-08-07T05:39:17;2.63;;;2.13;;
10550;SDS011;5324;50.684;3.862;2023-08-07T05:41:44;4.70;;;2.47;;
10550;SDS011;5324;50.684;3.862;2023-08-07T05:44:09;4.37;;;2.23;;
10550;SDS011;5324;50.684;3.862;2023-08-07T05:46:35;2.60;;;2.40;;
10550;SDS011;5324;50.684;3.862;2023-08-07T05:49:01;6.53;;;2.63;;
10550;SDS011;5324;50.684;3.862;2023-08-07T05:51:27;2.63;;;2.40;;
10550;SDS011;5324;50.684;3.862;2023-08-07T05:53:53;2.80;;;1.93;;
10550;SDS011;5324;50.684;3.862;2023-08-07T05:56:19;3.13;;;2.37;;
10550;SDS011;5324;50.684;3.862;2023-08-07T05:58:46;3.00;;;2.50;;
10550;SDS011;5324;50.684;3.862;2023-08-07T06:01:12;3.47;;;2.40;;
10550;SDS011;5324;50.684;3.862;2023-08-07T06:03:39;4.10;;;2.50;;
10550;SDS011;5324;50.684;3.862;2023-08-07T06:06:05;2.97;;;2.37;;
10550;SDS011;5324;50.684;3.862;2023-08-07T06:08:31;3.03;;;2.50;;
10550;SDS011;5324;50.684;3.862;2023-08-07T06:10:57;3.30;;;2.80;;
10550;SDS011;5324;50.684;3.862;2023-08-07T06:13:23;5.77;;;3.40;;
10550;SDS011;5324;50.684;3.862;2023-08-07T06:15:49;4.13;;;2.83;;
10550;SDS011;5324;50.684;3.862;2023-08-07T06:18:15;2.87;;;2.67;;
10550;SDS011;5324;50.684;3.862;2023-08-07T06:20:41;5.90;;;2.97;;
10550;SDS011;5324;50.684;3.862;2023-08-07T06:23:08;7.13;;;3.90;;
10550;SDS011;5324;50.684;3.862;2023-08-07T06:25:34;3.30;;;3.00;;
10550;SDS011;5324;50.684;3.862;2023-08-07T06:28:00;4.07;;;3.60;;
10550;SDS011;5324;50.684;3.862;2023-08-07T06:30:26;4.17;;;3.27;;
10550;SDS011;5324;50.684;3.862;2023-08-07T06:32:52;5.03;;;3.10;;
10550;SDS011;5324;50.684;3.862;2023-08-07T06:35:18;5.00;;;3.60;;
10550;SDS011;5324;50.684;3.862;2023-08-07T06:37:44;3.43;;;3.10;;
10550;SDS011;5324;50.684;3.862;2023-08-07T06:40:10;5.33;;;3.83;;
10550;SDS011;5324;50.684;3.862;2023-08-07T06:42:36;5.03;;;3.20;;
10550;SDS011;5324;50.684;3.862;2023-08-07T06:45:02;4.20;;;3.07;;
10550;SDS011;5324;50.684;3.862;2023-08-07T06:47:28;3.90;;;3.00;;
10550;SDS011;5324;50.684;3.862;2023-08-07T06:49:54;6.07;;;3.30;;
10550;SDS011;5324;50.684;3.862;2023-08-07T06:52:21;3.97;;;3.03;;
10550;SDS011;5324;50.684;3.862;2023-08-07T06:54:50;4.73;;;3.40;;
10550;SDS011;5324;50.684;3.862;2023-08-07T06:57:17;5.20;;;3.93;;
10550;SDS011;5324;50.684;3.862;2023-08-07T06:59:43;6.23;;;3.90;;
10550;SDS011;5324;50.684;3.862;2023-08-07T07:02:09;4.50;;;3.50;;
10550;SDS011;5324;50.684;3.862;2023-08-07T07:04:36;5.17;;;3.33;;
10550;SDS011;5324;50.684;3.862;2023-08-07T07:07:02;5.03;;;3.43;;
10550;SDS011;5324;50.684;3.862;2023-08-07T07:09:28;4.87;;;3.70;;
10550;SDS011;5324;50.684;3.862;2023-08-07T07:11:55;4.37;;;3.30;;
10550;SDS011;5324;50.684;3.862;2023-08-07T07:14:21;5.83;;;3.60;;
10550;SDS011;5324;50.684;3.862;2023-08-07T07:16:47;3.93;;;3.00;;
10550;SDS011;5324;50.684;3.862;2023-08-07T07:19:13;6.53;;;3.60;;
10550;SDS011;5324;50.684;3.862;2023-08-07T07:21:39;4.07;;;3.57;;
10550;SDS011;5324;50.684;3.862;2023-08-07T07:24:06;5.90;;;2.77;;
10550;SDS011;5324;50.684;3.862;2023-08-07T07:26:32;4.57;;;3.57;;
10550;SDS011;5324;50.684;3.862;2023-08-07T07:28:58;5.63;;;2.97;;
10550;SDS011;5324;50.684;3.862;2023-08-07T07:31:24;3.67;;;2.57;;
10550;SDS011;5324;50.684;3.862;2023-08-07T07:33:52;5.27;;;2.70;;
10550;SDS011;5324;50.684;3.862;2023-08-07T07:36:18;6.90;;;2.87;;
10550;SDS011;5324;50.684;3.862;2023-08-07T07:38:45;5.53;;;2.87;;
10550;SDS011;5324;50.684;3.862;2023-08-07T07:41:12;4.30;;;2.50;;
10550;SDS011;5324;50.684;3.862;2023-08-07T07:43:38;3.47;;;2.83;;
10550;SDS011;5324;50.684;3.862;2023-08-07T07:46:04;5.50;;;3.13;;
10550;SDS011;5324;50.684;3.862;2023-08-07T07:48:31;4.33;;;2.83;;
10550;SDS011;5324;50.684;3.862;2023-08-07T07:51:03;5.93;;;2.70;;
10550;SDS011;5324;50.684;3.862;2023-08-07T07:53:29;5.73;;;2.87;;
10550;SDS011;5324;50.684;3.862;2023-08-07T07:55:56;5.60;;;3.03;;
10550;SDS011;5324;50.684;3.862;2023-08-07T07:58:22;5.37;;;2.97;;
10550;SDS011;5324;50.684;3.862;2023-08-07T08:00:48;4.73;;;2.77;;
10550;SDS011;5324;50.684;3.862;2023-08-07T08:03:17;3.20;;;2.20;;
10550;SDS011;5324;50.684;3.862;2023-08-07T08:05:43;4.87;;;2.30;;
10550;SDS011;5324;50.684;3.862;2023-08-07T08:08:09;5.67;;;2.90;;
10550;SDS011;5324;50.684;3.862;2023-08-07T08:10:37;3.30;;;2.17;;
10550;SDS011;5324;50.684;3.862;2023-08-07T08:13:03;3.47;;;2.23;;
10550;SDS011;5324;50.684;3.862;2023-08-07T08:15:29;3.43;;;2.23;;
10550;SDS011;5324;50.684;3.862;2023-08-07T08:17:55;3.40;;;2.10;;
10550;SDS011;5324;50.684;3.862;2023-08-07T08:20:21;3.93;;;2.43;;
10550;SDS011;5324;50.684;3.862;2023-08-07T08:22:47;2.60;;;1.90;;
10550;SDS011;5324;50.684;3.862;2023-08-07T08:25:14;3.30;;;1.93;;
10550;SDS011;5324;50.684;3.862;2023-08-07T08:27:40;3.83;;;2.30;;
10550;SDS011;5324;50.684;3.862;2023-08-07T08:30:06;2.83;;;2.00;;
10550;SDS011;5324;50.684;3.862;2023-08-07T08:32:33;2.90;;;2.00;;
10550;SDS011;5324;50.684;3.862;2023-08-07T08:34:59;4.23;;;2.23;;
10550;SDS011;5324;50.684;3.862;2023-08-07T08:37:26;3.73;;;2.20;;
10550;SDS011;5324;50.684;3.862;2023-08-07T08:39:52;3.63;;;2.15;;
10550;SDS011;5324;50.684;3.862;2023-08-07T08:42:18;2.97;;;2.07;;
10550;SDS011;5324;50.684;3.862;2023-08-07T08:44:49;3.67;;;1.97;;
10550;SDS011;5324;50.684;3.862;2023-08-07T08:47:16;3.92;;;2.65;;
10550;SDS011;5324;50.684;3.862;2023-08-07T08:49:46;2.23;;;2.03;;
10550;SDS011;5324;50.684;3.862;2023-08-07T08:52:12;2.20;;;1.80;;
10550;SDS011;5324;50.684;3.862;2023-08-07T08:54:39;2.92;;;2.33;;
10550;SDS011;5324;50.684;3.862;2023-08-07T08:57:06;2.25;;;2.05;;
10550;SDS011;5324;50.684;3.862;2023-08-07T08:59:32;2.88;;;2.10;;
10550;SDS011;5324;50.684;3.862;2023-08-07T09:01:59;2.60;;;1.90;;
10550;SDS011;5324;50.684;3.862;2023-08-07T09:04:26;1.92;;;1.73;;
10550;SDS011;5324;50.684;3.862;2023-08-07T09:06:52;3.83;;;2.08;;
10550;SDS011;5324;50.684;3.862;2023-08-07T09:09:19;5.45;;;2.45;;
10550;SDS011;5324;50.684;3.862;2023-08-07T09:11:46;4.25;;;1.80;;
10550;SDS011;5324;50.684;3.862;2023-08-07T09:14:15;2.60;;;2.40;;
10550;SDS011;5324;50.684;3.862;2023-08-07T09:16:41;2.75;;;2.00;;
10550;SDS011;5324;50.684;3.862;2023-08-07T09:19:07;3.20;;;2.30;;
10550;SDS011;5324;50.684;3.862;2023-08-07T09:21:34;1.98;;;1.80;;
10550;SDS011;5324;50.684;3.862;2023-08-07T09:24:00;3.42;;;1.88;;
10550;SDS011;5324;50.684;3.862;2023-08-07T09:26:26;5.32;;;1.83;;
10550;SDS011;5324;50.684;3.862;2023-08-07T09:28:52;4.10;;;1.80;;
10550;SDS011;5324;50.684;3.862;2023-08-07T09:33:50;3.17;;;1.77;;
10550;SDS011;5324;50.684;3.862;2023-08-07T09:36:16;3.83;;;1.73;;
10550;SDS011;5324;50.684;3.862;2023-08-07T09:38:49;2.03;;;1.85;;
10550;SDS011;5324;50.684;3.862;2023-08-07T09:41:17;3.00;;;1.80;;
10550;SDS011;5324;50.684;3.862;2023-08-07T09:43:43;1.98;;;1.60;;
10550;SDS011;5324;50.684;3.862;2023-08-07T09:46:09;1.77;;;1.67;;
10550;SDS011;5324;50.684;3.862;2023-08-07T09:48:39;1.90;;;1.80;;
10550;SDS011;5324;50.684;3.862;2023-08-07T09:51:05;2.15;;;1.80;;
10550;SDS011;5324;50.684;3.862;2023-08-07T09:53:32;3.17;;;2.08;;
10550;SDS011;5324;50.684;3.862;2023-08-07T09:55:58;2.88;;;1.52;;
10550;SDS011;5324;50.684;3.862;2023-08-07T09:58:25;2.38;;;1.83;;
10550;SDS011;5324;50.684;3.862;2023-08-07T10:00:51;2.75;;;1.85;;
10550;SDS011;5324;50.684;3.862;2023-08-07T10:03:24;2.42;;;1.65;;
10550;SDS011;5324;50.684;3.862;2023-08-07T10:05:50;2.45;;;1.60;;
10550;SDS011;5324;50.684;3.862;2023-08-07T10:08:16;2.63;;;1.75;;
10550;SDS011;5324;50.684;3.862;2023-08-07T10:10:43;2.75;;;2.10;;
10550;SDS011;5324;50.684;3.862;2023-08-07T10:13:12;3.20;;;1.88;;
10550;SDS011;5324;50.684;3.862;2023-08-07T10:15:38;2.50;;;1.83;;
10550;SDS011;5324;50.684;3.862;2023-08-07T10:18:06;1.60;;;1.50;;
10550;SDS011;5324;50.684;3.862;2023-08-07T10:20:32;2.65;;;2.22;;
10550;SDS011;5324;50.684;3.862;2023-08-07T10:23:08;2.75;;;1.70;;
10550;SDS011;5324;50.684;3.862;2023-08-07T10:25:35;3.50;;;1.95;;
10550;SDS011;5324;50.684;3.862;2023-08-07T10:28:03;3.15;;;1.73;;
10550;SDS011;5324;50.684;3.862;2023-08-07T10:30:31;2.25;;;1.88;;
10550;SDS011;5324;50.684;3.862;2023-08-07T10:32:58;2.40;;;2.05;;
10550;SDS011;5324;50.684;3.862;2023-08-07T10:35:31;2.10;;;1.90;;
10550;SDS011;5324;50.684;3.862;2023-08-07T10:38:10;1.95;;;1.70;;
10550;SDS011;5324;50.684;3.862;2023-08-07T10:40:57;2.50;;;1.67;;
10550;SDS011;5324;50.684;3.862;2023-08-07T10:43:22;1.92;;;1.75;;
10550;SDS011;5324;50.684;3.862;2023-08-07T10:45:49;2.45;;;1.65;;
10550;SDS011;5324;50.684;3.862;2023-08-07T10:48:18;1.67;;;1.50;;
10550;SDS011;5324;50.684;3.862;2023-08-07T10:50:51;1.80;;;1.70;;
10550;SDS011;5324;50.684;3.862;2023-08-07T10:53:31;2.42;;;1.67;;
10550;SDS011;5324;50.684;3.862;2023-08-07T10:55:58;1.50;;;1.40;;
10550;SDS011;5324;50.684;3.862;2023-08-07T10:58:33;2.22;;;1.63;;
10550;SDS011;5324;50.684;3.862;2023-08-07T11:01:15;2.20;;;2.00;;
10550;SDS011;5324;50.684;3.862;2023-08-07T11:03:48;1.58;;;1.48;;
10550;SDS011;5324;50.684;3.862;2023-08-07T11:06:15;1.92;;;1.60;;
10550;SDS011;5324;50.684;3.862;2023-08-07T11:08:41;1.58;;;1.48;;
10550;SDS011;5324;50.684;3.862;2023-08-07T11:11:07;1.95;;;1.80;;
10550;SDS011;5324;50.684;3.862;2023-08-07T11:13:35;2.20;;;1.60;;
10550;SDS011;5324;50.684;3.862;2023-08-07T11:16:04;1.88;;;1.77;;
10550;SDS011;5324;50.684;3.862;2023-08-07T11:18:30;2.30;;;1.80;;
10550;SDS011;5324;50.684;3.862;2023-08-07T11:20:57;1.98;;;1.70;;
10550;SDS011;5324;50.684;3.862;2023-08-07T11:23:25;1.92;;;1.58;;
10550;SDS011;5324;50.684;3.862;2023-08-07T11:25:52;2.45;;;1.58;;
10550;SDS011;5324;50.684;3.862;2023-08-07T11:28:22;1.95;;;1.60;;
10550;SDS011;5324;50.684;3.862;2023-08-07T11:30:50;1.90;;;1.70;;
10550;SDS011;5324;50.684;3.862;2023-08-07T11:33:20;1.52;;;1.20;;
10550;SDS011;5324;50.684;3.862;2023-08-07T11:35:49;2.08;;;1.45;;
10550;SDS011;5324;50.684;3.862;2023-08-07T11:38:28;1.33;;;1.23;;
10550;SDS011;5324;50.684;3.862;2023-08-07T11:40:58;1.45;;;1.35;;
10550;SDS011;5324;50.684;3.862;2023-08-07T11:43:26;1.35;;;1.25;;
10550;SDS011;5324;50.684;3.862;2023-08-07T11:45:52;1.50;;;1.40;;
10550;SDS011;5324;50.684;3.862;2023-08-07T11:48:18;2.13;;;1.40;;
10550;SDS011;5324;50.684;3.862;2023-08-07T11:50:44;1.58;;;1.35;;
10550;SDS011;5324;50.684;3.862;2023-08-07T11:53:13;1.95;;;1.70;;
10550;SDS011;5324;50.684;3.862;2023-08-07T11:55:46;1.38;;;1.27;;
10550;SDS011;5324;50.684;3.862;2023-08-07T11:58:12;1.67;;;1.58;;
10550;SDS011;5324;50.684;3.862;2023-08-07T12:00:42;2.20;;;1.65;;
10550;SDS011;5324;50.684;3.862;2023-08-07T12:03:26;1.90;;;1.55;;
10550;SDS011;5324;50.684;3.862;2023-08-07T12:05:53;1.77;;;1.55;;
10550;SDS011;5324;50.684;3.862;2023-08-07T12:08:19;2.15;;;1.50;;
10550;SDS011;5324;50.684;3.862;2023-08-07T12:10:48;1.88;;;1.77;;
10550;SDS011;5324;50.684;3.862;2023-08-07T12:13:15;1.60;;;1.50;;
10550;SDS011;5324;50.684;3.862;2023-08-07T12:15:41;2.00;;;1.40;;
10550;SDS011;5324;50.684;3.862;2023-08-07T12:18:07;1.73;;;1.63;;
10550;SDS011;5324;50.684;3.862;2023-08-07T12:20:33;2.60;;;1.60;;
10550;SDS011;5324;50.684;3.862;2023-08-07T12:22:59;1.40;;;1.40;;
10550;SDS011;5324;50.684;3.862;2023-08-07T12:25:25;1.80;;;1.70;;
10550;SDS011;5324;50.684;3.862;2023-08-07T12:27:51;1.83;;;1.70;;
10550;SDS011;5324;50.684;3.862;2023-08-07T12:30:17;2.22;;;1.90;;
10550;SDS011;5324;50.684;3.862;2023-08-07T12:32:44;1.80;;;1.70;;
10550;SDS011;5324;50.684;3.862;2023-08-07T12:35:12;2.13;;;1.83;;
10550;SDS011;5324;50.684;3.862;2023-08-07T12:37:38;1.98;;;1.70;;
10550;SDS011;5324;50.684;3.862;2023-08-07T12:40:04;2.00;;;1.90;;
10550;SDS011;5324;50.684;3.862;2023-08-07T12:42:31;1.80;;;1.70;;
10550;SDS011;5324;50.684;3.862;2023-08-07T12:44:57;2.20;;;2.00;;
10550;SDS011;5324;50.684;3.862;2023-08-07T12:47:24;2.50;;;1.90;;
10550;SDS011;5324;50.684;3.862;2023-08-07T12:49:50;2.00;;;1.50;;
10550;SDS011;5324;50.684;3.862;2023-08-07T12:52:16;3.90;;;1.80;;
10550;SDS011;5324;50.684;3.862;2023-08-07T12:54:42;1.88;;;1.77;;
10550;SDS011;5324;50.684;3.862;2023-08-07T12:57:08;1.70;;;1.60;;
10550;SDS011;5324;50.684;3.862;2023-08-07T12:59:34;1.50;;;1.40;;
10550;SDS011;5324;50.684;3.862;2023-08-07T13:02:00;2.08;;;1.70;;
10550;SDS011;5324;50.684;3.862;2023-08-07T13:04:26;1.70;;;1.60;;
10550;SDS011;5324;50.684;3.862;2023-08-07T13:06:52;1.75;;;1.63;;
10550;SDS011;5324;50.684;3.862;2023-08-07T13:09:18;1.98;;;1.85;;
10550;SDS011;5324;50.684;3.862;2023-08-07T13:11:45;1.73;;;1.63;;
10550;SDS011;5324;50.684;3.862;2023-08-07T13:14:11;1.70;;;1.60;;
10550;SDS011;5324;50.684;3.862;2023-08-07T13:16:37;1.60;;;1.50;;
10550;SDS011;5324;50.684;3.862;2023-08-07T13:19:04;1.42;;;1.33;;
10550;SDS011;5324;50.684;3.862;2023-08-07T13:21:30;1.45;;;1.35;;
10550;SDS011;5324;50.684;3.862;2023-08-07T13:23:56;2.55;;;1.63;;
10550;SDS011;5324;50.684;3.862;2023-08-07T13:26:22;1.60;;;1.50;;
10550;SDS011;5324;50.684;3.862;2023-08-07T13:28:48;1.10;;;1.10;;
10550;SDS011;5324;50.684;3.862;2023-08-07T13:31:14;1.38;;;1.38;;
10550;SDS011;5324;50.684;3.862;2023-08-07T13:33:40;1.50;;;1.40;;
10550;SDS011;5324;50.684;3.862;2023-08-07T13:36:06;1.50;;;1.40;;
10550;SDS011;5324;50.684;3.862;2023-08-07T13:38:32;1.80;;;1.60;;
10550;SDS011;5324;50.684;3.862;2023-08-07T13:40:58;1.65;;;1.55;;
10550;SDS011;5324;50.684;3.862;2023-08-07T13:43:24;1.63;;;1.52;;
10550;SDS011;5324;50.684;3.862;2023-08-07T13:45:51;2.00;;;1.42;;
10550;SDS011;5324;50.684;3.862;2023-08-07T13:48:17;1.63;;;1.52;;
10550;SDS011;5324;50.684;3.862;2023-08-07T13:50:45;2.40;;;1.40;;
10550;SDS011;5324;50.684;3.862;2023-08-07T13:53:12;1.60;;;1.50;;
10550;SDS011;5324;50.684;3.862;2023-08-07T13:55:38;2.53;;;1.63;;
10550;SDS011;5324;50.684;3.862;2023-08-07T13:58:04;1.90;;;1.70;;
10550;SDS011;5324;50.684;3.862;2023-08-07T14:00:30;1.40;;;1.30;;
10550;SDS011;5324;50.684;3.862;2023-08-07T14:02:59;1.60;;;1.50;;
10550;SDS011;5324;50.684;3.862;2023-08-07T14:05:25;1.60;;;1.50;;
10550;SDS011;5324;50.684;3.862;2023-08-07T14:07:51;2.75;;;1.55;;
10550;SDS011;5324;50.684;3.862;2023-08-07T14:10:18;1.48;;;1.38;;
10550;SDS011;5324;50.684;3.862;2023-08-07T14:12:44;1.20;;;1.10;;
10550;SDS011;5324;50.684;3.862;2023-08-07T14:15:11;1.30;;;1.13;;
10550;SDS011;5324;50.684;3.862;2023-08-07T14:17:37;1.52;;;1.42;;
10550;SDS011;5324;50.684;3.862;2023-08-07T14:20:03;1.15;;;1.10;;
10550;SDS011;5324;50.684;3.862;2023-08-07T14:22:30;1.50;;;1.40;;
10550;SDS011;5324;50.684;3.862;2023-08-07T14:24:57;1.40;;;1.30;;
10550;SDS011;5324;50.684;3.862;2023-08-07T14:27:23;1.75;;;1.63;;
10550;SDS011;5324;50.684;3.862;2023-08-07T14:29:49;3.20;;;1.88;;
10550;SDS011;5324;50.684;3.862;2023-08-07T14:32:15;2.35;;;1.60;;
10550;SDS011;5324;50.684;3.862;2023-08-07T14:34:41;3.13;;;1.67;;
10550;SDS011;5324;50.684;3.862;2023-08-07T14:37:07;1.55;;;1.45;;
10550;SDS011;5324;50.684;3.862;2023-08-07T14:39:33;2.13;;;1.75;;
10550;SDS011;5324;50.684;3.862;2023-08-07T14:41:59;1.67;;;1.58;;
10550;SDS011;5324;50.684;3.862;2023-08-07T14:44:25;1.88;;;1.42;;
10550;SDS011;5324;50.684;3.862;2023-08-07T14:46:51;1.75;;;1.60;;
10550;SDS011;5324;50.684;3.862;2023-08-07T14:49:17;1.63;;;1.52;;
10550;SDS011;5324;50.684;3.862;2023-08-07T14:51:43;1.50;;;1.40;;
10550;SDS011;5324;50.684;3.862;2023-08-07T14:54:09;1.85;;;1.52;;
10550;SDS011;5324;50.684;3.862;2023-08-07T14:56:35;1.98;;;1.52;;
10550;SDS011;5324;50.684;3.862;2023-08-07T14:59:01;1.63;;;1.52;;
10550;SDS011;5324;50.684;3.862;2023-08-07T15:01:27;2.53;;;1.67;;
10550;SDS011;5324;50.684;3.862;2023-08-07T15:03:53;1.52;;;1.40;;
10550;SDS011;5324;50.684;3.862;2023-08-07T15:06:19;2.42;;;1.73;;